This is the latest recevied weather packets stored in our database for station/object KD4KKF. If no packets are shown the sender has not sent any weather packets the latest 10 day(s).
| Time | Temp. | Humidity | Pressure | Rain* | Wind** | Luminosity | Snow |
|---|---|---|---|---|---|---|---|
| 1778013500 | 22.78° C | 70% | 1010.3 hPa | 0 mm | - | 140 W/m² | - |
| 1778013196 | 22.78° C | 69% | 1010.5 hPa | 0 mm | - | 138 W/m² | - |
| 1778012892 | 23.33° C | 68% | 1010.4 hPa | 0 mm | - | 152 W/m² | - |
| 1778012589 | 23.33° C | 69% | 1010.7 hPa | 0 mm | - | 132 W/m² | - |
| 1778012285 | 23.33° C | 68% | 1010.7 hPa | 0 mm | - | 161 W/m² | - |
| 1778011983 | 23.33° C | 68% | 1010.7 hPa | 0 mm | - | 200 W/m² | - |
| 1778011681 | 23.33° C | 68% | 1010.8 hPa | 0 mm | - | 232 W/m² | - |
| 1778011378 | 23.33° C | 67% | 1010.8 hPa | 0 mm | - | 235 W/m² | - |
| 1778011073 | 23.33° C | 69% | 1011.2 hPa | 0 mm | - | 255 W/m² | - |
| 1778010771 | 23.89° C | 66% | 1010.9 hPa | 0 mm | - | 282 W/m² | - |
| 1778010468 | 23.89° C | 66% | 1011 hPa | 0 mm | - | 322 W/m² | - |
| 1778010164 | 24.44° C | 65% | 1011.2 hPa | 0 mm | - | 411 W/m² | - |
| 1778009860 | 23.89° C | 65% | 1011.1 hPa | 0 mm | - | 436 W/m² | - |
| 1778009557 | 23.89° C | 64% | 1011.1 hPa | 0 mm | - | 380 W/m² | - |
| 1778009256 | 23.89° C | 63% | 1011.1 hPa | 0 mm | - | 347 W/m² | - |
| 1778008953 | 24.44° C | 62% | 1011.4 hPa | 0 mm | - | 341 W/m² | - |
| 1778008651 | 23.89° C | 62% | 1011.5 hPa | 0 mm | - | 393 W/m² | - |
| 1778008350 | 24.44° C | 60% | 1011.5 hPa | 0 mm | - | 356 W/m² | - |
| 1778008045 | 23.89° C | 65% | 1011.7 hPa | 0 mm | - | 731 W/m² | - |
| 1778007745 | 24.44° C | 62% | 1011.4 hPa | 0 mm | - | 375 W/m² | - |
| 1778007442 | 24.44° C | 63% | 1011.7 hPa | 0 mm | - | 247 W/m² | - |
| 1778007139 | 24.44° C | 62% | 1011.4 hPa | 0 mm | - | 672 W/m² | - |
| 1778006835 | 25° C | 62% | 1011.7 hPa | 0 mm | - | 961 W/m² | - |
| 1778006533 | 25° C | 61% | 1011.8 hPa | 0 mm | - | 809 W/m² | - |
| 1778006229 | 24.44° C | 61% | 1011.9 hPa | 0 mm | - | 664 W/m² | - |
* Rain latest hour (hover to see other rain measurements)
** Current wind speed in m/s (hover to see current wind gust speed)